sensor_id;sensor_type;location;lat;lon;timestamp;pressure;altitude;pressure_sealevel;temperature;humidity
73516;BME280;61763;51.416;5.442;2023-03-23T00:00:08;100175.66;;;11.26;100.00
73516;BME280;61763;51.416;5.442;2023-03-23T00:02:34;100179.91;;;11.30;100.00
73516;BME280;61763;51.416;5.442;2023-03-23T00:05:02;100184.66;;;11.27;100.00
73516;BME280;61763;51.416;5.442;2023-03-23T00:07:28;100167.28;;;11.31;100.00
73516;BME280;61763;51.416;5.442;2023-03-23T00:09:55;100144.28;;;11.38;100.00
73516;BME280;61763;51.416;5.442;2023-03-23T00:12:25;100152.00;;;11.44;100.00
73516;BME280;61763;51.416;5.442;2023-03-23T00:15:04;100178.25;;;11.42;100.00
73516;BME280;61763;51.416;5.442;2023-03-23T00:17:31;100179.69;;;11.48;100.00
73516;BME280;61763;51.416;5.442;2023-03-23T00:19:58;100157.53;;;11.43;100.00
73516;BME280;61763;51.416;5.442;2023-03-23T00:22:27;100152.78;;;11.46;100.00
73516;BME280;61763;51.416;5.442;2023-03-23T00:24:52;100153.63;;;11.47;100.00
73516;BME280;61763;51.416;5.442;2023-03-23T00:27:18;100162.41;;;11.50;100.00
73516;BME280;61763;51.416;5.442;2023-03-23T00:29:43;100157.22;;;11.47;100.00
73516;BME280;61763;51.416;5.442;2023-03-23T00:32:11;100166.19;;;11.48;100.00
73516;BME280;61763;51.416;5.442;2023-03-23T00:34:42;100163.38;;;11.49;100.00
73516;BME280;61763;51.416;5.442;2023-03-23T00:37:09;100166.97;;;11.35;100.00
73516;BME280;61763;51.416;5.442;2023-03-23T00:39:35;100161.78;;;11.32;100.00
73516;BME280;61763;51.416;5.442;2023-03-23T00:42:03;100171.59;;;11.33;100.00
73516;BME280;61763;51.416;5.442;2023-03-23T00:44:31;100173.94;;;11.39;100.00
73516;BME280;61763;51.416;5.442;2023-03-23T00:46:57;100160.47;;;11.52;100.00
73516;BME280;61763;51.416;5.442;2023-03-23T00:49:24;100157.00;;;11.50;100.00
73516;BME280;61763;51.416;5.442;2023-03-23T00:51:54;100159.41;;;11.55;100.00
73516;BME280;61763;51.416;5.442;2023-03-23T00:54:20;100158.25;;;11.59;100.00
73516;BME280;61763;51.416;5.442;2023-03-23T00:56:46;100153.53;;;11.48;100.00
73516;BME280;61763;51.416;5.442;2023-03-23T00:59:12;100144.34;;;11.51;100.00
73516;BME280;61763;51.416;5.442;2023-03-23T01:01:38;100162.41;;;11.50;100.00
73516;BME280;61763;51.416;5.442;2023-03-23T01:04:04;100156.09;;;11.64;100.00
73516;BME280;61763;51.416;5.442;2023-03-23T01:06:32;100156.88;;;11.66;100.00
73516;BME280;61763;51.416;5.442;2023-03-23T01:08:58;100152.91;;;11.72;100.00
73516;BME280;61763;51.416;5.442;2023-03-23T01:11:24;100162.50;;;11.63;100.00
73516;BME280;61763;51.416;5.442;2023-03-23T01:13:50;100143.84;;;11.58;100.00
73516;BME280;61763;51.416;5.442;2023-03-23T01:16:16;100126.34;;;11.51;100.00
73516;BME280;61763;51.416;5.442;2023-03-23T01:18:41;100126.13;;;11.54;100.00
73516;BME280;61763;51.416;5.442;2023-03-23T01:21:09;100121.38;;;11.58;100.00
73516;BME280;61763;51.416;5.442;2023-03-23T01:23:37;100114.22;;;11.57;100.00
73516;BME280;61763;51.416;5.442;2023-03-23T01:26:11;100114.53;;;11.52;100.00
73516;BME280;61763;51.416;5.442;2023-03-23T01:28:38;100113.69;;;11.52;100.00
73516;BME280;61763;51.416;5.442;2023-03-23T01:31:07;100105.00;;;11.47;100.00
73516;BME280;61763;51.416;5.442;2023-03-23T01:33:33;100103.06;;;11.49;100.00
73516;BME280;61763;51.416;5.442;2023-03-23T01:36:03;100108.00;;;11.42;100.00
73516;BME280;61763;51.416;5.442;2023-03-23T01:38:29;100111.50;;;11.44;100.00
73516;BME280;61763;51.416;5.442;2023-03-23T01:40:56;100111.59;;;11.43;100.00
73516;BME280;61763;51.416;5.442;2023-03-23T01:43:21;100119.59;;;11.44;100.00
73516;BME280;61763;51.416;5.442;2023-03-23T01:45:46;100114.50;;;11.39;100.00
73516;BME280;61763;51.416;5.442;2023-03-23T01:48:19;100117.47;;;11.35;100.00
73516;BME280;61763;51.416;5.442;2023-03-23T01:50:57;100125.09;;;11.43;100.00
73516;BME280;61763;51.416;5.442;2023-03-23T01:53:26;100124.59;;;11.50;100.00
73516;BME280;61763;51.416;5.442;2023-03-23T01:55:55;100113.94;;;11.62;100.00
73516;BME280;61763;51.416;5.442;2023-03-23T01:58:27;100104.13;;;11.46;100.00
73516;BME280;61763;51.416;5.442;2023-03-23T02:01:01;100105.69;;;11.50;100.00
73516;BME280;61763;51.416;5.442;2023-03-23T02:03:27;100101.03;;;11.52;100.00
73516;BME280;61763;51.416;5.442;2023-03-23T02:05:54;100080.66;;;11.47;100.00
73516;BME280;61763;51.416;5.442;2023-03-23T02:08:24;100078.66;;;11.50;100.00
73516;BME280;61763;51.416;5.442;2023-03-23T02:10:53;100075.94;;;11.50;100.00
73516;BME280;61763;51.416;5.442;2023-03-23T02:13:18;100081.66;;;11.46;100.00
73516;BME280;61763;51.416;5.442;2023-03-23T02:21:19;100079.50;;;11.51;100.00
73516;BME280;61763;51.416;5.442;2023-03-23T02:27:00;100077.28;;;11.57;100.00
73516;BME280;61763;51.416;5.442;2023-03-23T02:29:47;100071.25;;;11.67;100.00
73516;BME280;61763;51.416;5.442;2023-03-23T02:32:36;100082.63;;;11.72;100.00
73516;BME280;61763;51.416;5.442;2023-03-23T02:35:11;100078.06;;;11.72;100.00
73516;BME280;61763;51.416;5.442;2023-03-23T02:37:51;100069.00;;;11.73;100.00
73516;BME280;61763;51.416;5.442;2023-03-23T02:40:24;100060.78;;;11.75;100.00
73516;BME280;61763;51.416;5.442;2023-03-23T02:42:53;100063.88;;;11.69;100.00
73516;BME280;61763;51.416;5.442;2023-03-23T02:45:21;100062.94;;;11.70;100.00
73516;BME280;61763;51.416;5.442;2023-03-23T02:47:52;100068.66;;;11.65;100.00
73516;BME280;61763;51.416;5.442;2023-03-23T02:50:22;100064.78;;;11.69;100.00
73516;BME280;61763;51.416;5.442;2023-03-23T02:52:49;100064.03;;;11.80;100.00
73516;BME280;61763;51.416;5.442;2023-03-23T02:55:17;100062.50;;;11.76;100.00
73516;BME280;61763;51.416;5.442;2023-03-23T02:57:44;100065.22;;;11.76;100.00
73516;BME280;61763;51.416;5.442;2023-03-23T03:00:13;100072.25;;;11.79;100.00
73516;BME280;61763;51.416;5.442;2023-03-23T03:02:44;100060.25;;;11.83;100.00
73516;BME280;61763;51.416;5.442;2023-03-23T03:11:03;100074.31;;;11.75;100.00
73516;BME280;61763;51.416;5.442;2023-03-23T03:18:44;100059.81;;;11.76;100.00
73516;BME280;61763;51.416;5.442;2023-03-23T03:21:13;100058.31;;;11.72;100.00
73516;BME280;61763;51.416;5.442;2023-03-23T03:23:43;100072.34;;;11.77;100.00
73516;BME280;61763;51.416;5.442;2023-03-23T03:26:11;100067.47;;;11.69;100.00
73516;BME280;61763;51.416;5.442;2023-03-23T03:28:43;100057.31;;;11.73;100.00
73516;BME280;61763;51.416;5.442;2023-03-23T03:31:15;100070.81;;;11.73;100.00
73516;BME280;61763;51.416;5.442;2023-03-23T03:33:42;100060.69;;;11.77;100.00
73516;BME280;61763;51.416;5.442;2023-03-23T03:36:15;100057.00;;;11.78;100.00
73516;BME280;61763;51.416;5.442;2023-03-23T03:38:46;100057.00;;;11.78;100.00
73516;BME280;61763;51.416;5.442;2023-03-23T03:41:12;100068.22;;;11.71;100.00
73516;BME280;61763;51.416;5.442;2023-03-23T03:43:39;100074.22;;;11.77;100.00
73516;BME280;61763;51.416;5.442;2023-03-23T03:46:05;100074.41;;;11.73;100.00
73516;BME280;61763;51.416;5.442;2023-03-23T03:48:30;100080.88;;;11.71;100.00
73516;BME280;61763;51.416;5.442;2023-03-23T03:50:56;100076.22;;;11.73;100.00
73516;BME280;61763;51.416;5.442;2023-03-23T03:53:24;100063.59;;;11.73;100.00
73516;BME280;61763;51.416;5.442;2023-03-23T03:55:51;100066.84;;;11.79;100.00
73516;BME280;61763;51.416;5.442;2023-03-23T03:58:21;100084.81;;;11.80;100.00
73516;BME280;61763;51.416;5.442;2023-03-23T04:00:47;100082.22;;;11.78;100.00
73516;BME280;61763;51.416;5.442;2023-03-23T04:03:16;100079.41;;;11.80;100.00
73516;BME280;61763;51.416;5.442;2023-03-23T04:05:42;100076.81;;;11.78;100.00
73516;BME280;61763;51.416;5.442;2023-03-23T04:08:10;100080.25;;;11.80;100.00
73516;BME280;61763;51.416;5.442;2023-03-23T04:10:37;100084.75;;;11.67;100.00
73516;BME280;61763;51.416;5.442;2023-03-23T04:13:02;100080.09;;;11.69;100.00
73516;BME280;61763;51.416;5.442;2023-03-23T04:15:30;100080.69;;;11.74;100.00
73516;BME280;61763;51.416;5.442;2023-03-23T04:17:55;100087.19;;;11.84;100.00
73516;BME280;61763;51.416;5.442;2023-03-23T04:20:22;100082.84;;;11.82;100.00
73516;BME280;61763;51.416;5.442;2023-03-23T04:22:50;100081.78;;;11.84;100.00
73516;BME280;61763;51.416;5.442;2023-03-23T04:25:18;100088.16;;;11.83;100.00
73516;BME280;61763;51.416;5.442;2023-03-23T04:27:46;100077.66;;;11.79;100.00
73516;BME280;61763;51.416;5.442;2023-03-23T04:30:21;100083.75;;;11.82;100.00
73516;BME280;61763;51.416;5.442;2023-03-23T04:32:48;100094.56;;;11.82;100.00
73516;BME280;61763;51.416;5.442;2023-03-23T04:35:16;100102.47;;;11.85;100.00
73516;BME280;61763;51.416;5.442;2023-03-23T04:37:42;100116.06;;;11.84;100.00
73516;BME280;61763;51.416;5.442;2023-03-23T04:40:08;100107.66;;;11.88;100.00
73516;BME280;61763;51.416;5.442;2023-03-23T04:42:41;100102.47;;;11.85;100.00
73516;BME280;61763;51.416;5.442;2023-03-23T04:45:07;100103.41;;;11.84;100.00
73516;BME280;61763;51.416;5.442;2023-03-23T04:47:37;100099.19;;;11.80;100.00
73516;BME280;61763;51.416;5.442;2023-03-23T04:50:08;100102.31;;;11.74;100.00
73516;BME280;61763;51.416;5.442;2023-03-23T04:52:33;100107.72;;;11.74;100.00
73516;BME280;61763;51.416;5.442;2023-03-23T04:54:58;100110.00;;;11.80;100.00
73516;BME280;61763;51.416;5.442;2023-03-23T04:57:24;100100.03;;;11.68;100.00
73516;BME280;61763;51.416;5.442;2023-03-23T04:59:53;100113.31;;;11.71;100.00
73516;BME280;61763;51.416;5.442;2023-03-23T05:02:18;100111.59;;;11.70;100.00
73516;BME280;61763;51.416;5.442;2023-03-23T05:04:44;100101.84;;;11.67;100.00
73516;BME280;61763;51.416;5.442;2023-03-23T05:07:10;100116.13;;;11.69;100.00
73516;BME280;61763;51.416;5.442;2023-03-23T05:09:36;100108.22;;;11.66;100.00
73516;BME280;61763;51.416;5.442;2023-03-23T05:12:09;100111.38;;;11.73;100.00
73516;BME280;61763;51.416;5.442;2023-03-23T05:14:34;100115.75;;;11.61;100.00
73516;BME280;61763;51.416;5.442;2023-03-23T05:17:00;100121.56;;;11.55;100.00
73516;BME280;61763;51.416;5.442;2023-03-23T05:19:26;100123.03;;;11.46;100.00
73516;BME280;61763;51.416;5.442;2023-03-23T05:21:56;100124.91;;;11.31;100.00
73516;BME280;61763;51.416;5.442;2023-03-23T05:24:21;100128.34;;;11.06;100.00
73516;BME280;61763;51.416;5.442;2023-03-23T05:26:47;100093.66;;;10.71;100.00
73516;BME280;61763;51.416;5.442;2023-03-23T05:29:17;100128.72;;;10.71;100.00
73516;BME280;61763;51.416;5.442;2023-03-23T05:31:42;100130.34;;;10.59;100.00
73516;BME280;61763;51.416;5.442;2023-03-23T05:34:08;100129.84;;;10.52;100.00
73516;BME280;61763;51.416;5.442;2023-03-23T05:36:33;100144.28;;;10.37;100.00
73516;BME280;61763;51.416;5.442;2023-03-23T05:38:59;100145.16;;;10.22;100.00
73516;BME280;61763;51.416;5.442;2023-03-23T05:41:26;100142.19;;;10.12;100.00
73516;BME280;61763;51.416;5.442;2023-03-23T05:43:51;100144.00;;;10.11;100.00
73516;BME280;61763;51.416;5.442;2023-03-23T05:46:17;100142.19;;;10.12;100.00
73516;BME280;61763;51.416;5.442;2023-03-23T05:48:43;100153.53;;;10.03;100.00
73516;BME280;61763;51.416;5.442;2023-03-23T05:51:08;100154.16;;;10.22;100.00
73516;BME280;61763;51.416;5.442;2023-03-23T05:53:35;100156.94;;;10.21;100.00
73516;BME280;61763;51.416;5.442;2023-03-23T05:56:01;100146.81;;;10.24;100.00
73516;BME280;61763;51.416;5.442;2023-03-23T05:58:27;100137.59;;;10.28;100.00
73516;BME280;61763;51.416;5.442;2023-03-23T06:00:52;100135.09;;;10.25;100.00
73516;BME280;61763;51.416;5.442;2023-03-23T06:03:17;100149.59;;;10.39;100.00
73516;BME280;61763;51.416;5.442;2023-03-23T06:05:43;100132.75;;;10.35;100.00
73516;BME280;61763;51.416;5.442;2023-03-23T06:08:09;100135.91;;;10.42;100.00
73516;BME280;61763;51.416;5.442;2023-03-23T06:10:35;100136.78;;;10.42;100.00
73516;BME280;61763;51.416;5.442;2023-03-23T06:13:02;100126.28;;;10.38;100.00
73516;BME280;61763;51.416;5.442;2023-03-23T06:15:28;100143.28;;;10.54;100.00
73516;BME280;61763;51.416;5.442;2023-03-23T06:17:58;100153.28;;;10.52;100.00
73516;BME280;61763;51.416;5.442;2023-03-23T06:20:24;100147.59;;;10.57;100.00
73516;BME280;61763;51.416;5.442;2023-03-23T06:22:50;100159.19;;;10.59;100.00
73516;BME280;61763;51.416;5.442;2023-03-23T06:25:16;100162.22;;;10.52;100.00
73516;BME280;61763;51.416;5.442;2023-03-23T06:27:41;100164.66;;;10.72;100.00
73516;BME280;61763;51.416;5.442;2023-03-23T06:30:07;100170.75;;;10.75;100.00
73516;BME280;61763;51.416;5.442;2023-03-23T06:32:33;100174.22;;;10.77;100.00
73516;BME280;61763;51.416;5.442;2023-03-23T06:34:59;100168.63;;;10.80;100.00
73516;BME280;61763;51.416;5.442;2023-03-23T06:37:24;100169.88;;;10.89;100.00
73516;BME280;61763;51.416;5.442;2023-03-23T06:39:50;100187.06;;;10.88;100.00
73516;BME280;61763;51.416;5.442;2023-03-23T06:42:16;100175.78;;;10.96;100.00
73516;BME280;61763;51.416;5.442;2023-03-23T06:44:43;100187.94;;;10.89;100.00
73516;BME280;61763;51.416;5.442;2023-03-23T06:47:08;100179.16;;;10.99;100.00
73516;BME280;61763;51.416;5.442;2023-03-23T06:49:34;100190.34;;;11.08;100.00
73516;BME280;61763;51.416;5.442;2023-03-23T06:52:00;100192.34;;;11.04;100.00
73516;BME280;61763;51.416;5.442;2023-03-23T06:54:28;100191.19;;;11.08;100.00
73516;BME280;61763;51.416;5.442;2023-03-23T06:56:53;100198.84;;;11.01;100.00
73516;BME280;61763;51.416;5.442;2023-03-23T06:59:19;100195.84;;;10.92;100.00
73516;BME280;61763;51.416;5.442;2023-03-23T07:01:44;100192.16;;;10.78;100.00
73516;BME280;61763;51.416;5.442;2023-03-23T07:04:13;100193.69;;;10.68;100.00
73516;BME280;61763;51.416;5.442;2023-03-23T07:06:41;100194.63;;;10.67;100.00
73516;BME280;61763;51.416;5.442;2023-03-23T07:09:06;100197.53;;;10.64;100.00
73516;BME280;61763;51.416;5.442;2023-03-23T07:11:32;100183.47;;;10.59;100.00
73516;BME280;61763;51.416;5.442;2023-03-23T07:13:58;100202.34;;;10.59;100.00
73516;BME280;61763;51.416;5.442;2023-03-23T07:16:23;100204.56;;;10.66;100.00
73516;BME280;61763;51.416;5.442;2023-03-23T07:18:49;100202.63;;;10.68;100.00
73516;BME280;61763;51.416;5.442;2023-03-23T07:21:15;100211.31;;;10.59;100.00
73516;BME280;61763;51.416;5.442;2023-03-23T07:23:40;100223.13;;;10.57;100.00
73516;BME280;61763;51.416;5.442;2023-03-23T07:26:07;100225.16;;;10.53;100.00
73516;BME280;61763;51.416;5.442;2023-03-23T07:28:33;100219.25;;;10.46;100.00
73516;BME280;61763;51.416;5.442;2023-03-23T07:31:01;100217.63;;;10.44;100.00
73516;BME280;61763;51.416;5.442;2023-03-23T07:33:27;100210.97;;;10.35;100.00
73516;BME280;61763;51.416;5.442;2023-03-23T07:35:52;100209.38;;;10.31;100.00
73516;BME280;61763;51.416;5.442;2023-03-23T07:38:18;100216.63;;;10.14;100.00
73516;BME280;61763;51.416;5.442;2023-03-23T07:40:43;100259.59;;;10.17;100.00
73516;BME280;61763;51.416;5.442;2023-03-23T07:43:10;100299.09;;;10.03;100.00
73516;BME280;61763;51.416;5.442;2023-03-23T07:45:35;100280.94;;;9.41;100.00
73516;BME280;61763;51.416;5.442;2023-03-23T07:48:01;100276.88;;;9.16;100.00
73516;BME280;61763;51.416;5.442;2023-03-23T07:50:28;100266.94;;;8.83;100.00
73516;BME280;61763;51.416;5.442;2023-03-23T07:52:55;100265.59;;;8.74;100.00
73516;BME280;61763;51.416;5.442;2023-03-23T07:55:21;100263.06;;;8.71;100.00
73516;BME280;61763;51.416;5.442;2023-03-23T07:57:47;100272.22;;;8.85;100.00
73516;BME280;61763;51.416;5.442;2023-03-23T08:00:17;100277.31;;;8.91;100.00
73516;BME280;61763;51.416;5.442;2023-03-23T08:02:50;100279.53;;;8.83;100.00
73516;BME280;61763;51.416;5.442;2023-03-23T08:05:16;100288.09;;;8.73;100.00
73516;BME280;61763;51.416;5.442;2023-03-23T08:07:43;100289.44;;;8.82;100.00
73516;BME280;61763;51.416;5.442;2023-03-23T08:10:11;100292.97;;;8.83;100.00
73516;BME280;61763;51.416;5.442;2023-03-23T08:12:41;100304.84;;;8.79;100.00
73516;BME280;61763;51.416;5.442;2023-03-23T08:15:08;100315.94;;;8.90;100.00
73516;BME280;61763;51.416;5.442;2023-03-23T08:17:35;100321.94;;;8.95;100.00
73516;BME280;61763;51.416;5.442;2023-03-23T08:20:01;100322.00;;;8.93;100.00
73516;BME280;61763;51.416;5.442;2023-03-23T08:22:33;100329.22;;;8.93;100.00
73516;BME280;61763;51.416;5.442;2023-03-23T08:24:58;100334.94;;;9.04;100.00
73516;BME280;61763;51.416;5.442;2023-03-23T08:27:25;100338.00;;;9.14;100.00
73516;BME280;61763;51.416;5.442;2023-03-23T08:29:52;100331.81;;;9.29;100.00
73516;BME280;61763;51.416;5.442;2023-03-23T08:32:18;100312.03;;;9.46;100.00
73516;BME280;61763;51.416;5.442;2023-03-23T08:34:43;100310.31;;;9.45;100.00
73516;BME280;61763;51.416;5.442;2023-03-23T08:37:09;100320.75;;;9.52;100.00
73516;BME280;61763;51.416;5.442;2023-03-23T08:39:35;100318.59;;;9.58;100.00
73516;BME280;61763;51.416;5.442;2023-03-23T08:42:00;100316.69;;;9.60;100.00
73516;BME280;61763;51.416;5.442;2023-03-23T08:44:25;100313.84;;;9.79;100.00
73516;BME280;61763;51.416;5.442;2023-03-23T08:46:51;100334.53;;;9.79;100.00
73516;BME280;61763;51.416;5.442;2023-03-23T08:49:24;100333.16;;;9.72;100.00
73516;BME280;61763;51.416;5.442;2023-03-23T08:51:51;100327.16;;;9.82;100.00
73516;BME280;61763;51.416;5.442;2023-03-23T08:54:16;100311.25;;;9.78;100.00
73516;BME280;61763;51.416;5.442;2023-03-23T08:56:42;100311.16;;;9.79;100.00
73516;BME280;61763;51.416;5.442;2023-03-23T08:59:08;100309.50;;;9.77;100.00
73516;BME280;61763;51.416;5.442;2023-03-23T09:01:34;100320.53;;;9.72;100.00
73516;BME280;61763;51.416;5.442;2023-03-23T09:04:00;100326.38;;;9.80;100.00
73516;BME280;61763;51.416;5.442;2023-03-23T09:06:25;100331.84;;;9.95;100.00
73516;BME280;61763;51.416;5.442;2023-03-23T09:08:53;100331.69;;;9.98;100.00
73516;BME280;61763;51.416;5.442;2023-03-23T09:11:20;100341.88;;;9.93;100.00
73516;BME280;61763;51.416;5.442;2023-03-23T09:13:45;100346.53;;;9.89;100.00
73516;BME280;61763;51.416;5.442;2023-03-23T09:16:10;100340.44;;;9.70;100.00
73516;BME280;61763;51.416;5.442;2023-03-23T09:18:36;100334.75;;;9.58;100.00
73516;BME280;61763;51.416;5.442;2023-03-23T09:21:02;100337.59;;;9.55;100.00
73516;BME280;61763;51.416;5.442;2023-03-23T09:23:29;100344.16;;;9.51;100.00
73516;BME280;61763;51.416;5.442;2023-03-23T09:25:55;100336.06;;;9.51;100.00
73516;BME280;61763;51.416;5.442;2023-03-23T09:28:20;100332.97;;;9.41;100.00
73516;BME280;61763;51.416;5.442;2023-03-23T09:30:46;100323.78;;;9.45;100.00
73516;BME280;61763;51.416;5.442;2023-03-23T09:33:13;100320.41;;;9.58;100.00
73516;BME280;61763;51.416;5.442;2023-03-23T09:35:39;100324.19;;;9.71;100.00
73516;BME280;61763;51.416;5.442;2023-03-23T09:38:07;100334.91;;;9.89;100.00
73516;BME280;61763;51.416;5.442;2023-03-23T09:40:46;100346.44;;;9.91;100.00
73516;BME280;61763;51.416;5.442;2023-03-23T09:48:33;100351.44;;;10.46;100.00
73516;BME280;61763;51.416;5.442;2023-03-23T09:51:15;100352.06;;;10.67;100.00
73516;BME280;61763;51.416;5.442;2023-03-23T09:53:49;100343.50;;;10.75;100.00
73516;BME280;61763;51.416;5.442;2023-03-23T09:56:17;100335.22;;;10.78;100.00
73516;BME280;61763;51.416;5.442;2023-03-23T10:01:51;100331.31;;;10.68;100.00
73516;BME280;61763;51.416;5.442;2023-03-23T10:04:37;100336.84;;;10.50;100.00
73516;BME280;61763;51.416;5.442;2023-03-23T10:07:11;100341.78;;;10.58;100.00
73516;BME280;61763;51.416;5.442;2023-03-23T10:09:40;100342.78;;;10.72;100.00
73516;BME280;61763;51.416;5.442;2023-03-23T10:12:31;100342.75;;;10.87;100.00
73516;BME280;61763;51.416;5.442;2023-03-23T10:15:20;100354.50;;;11.17;100.00
73516;BME280;61763;51.416;5.442;2023-03-23T10:17:54;100342.59;;;11.50;100.00
73516;BME280;61763;51.416;5.442;2023-03-23T10:20:54;100347.25;;;11.77;100.00
73516;BME280;61763;51.416;5.442;2023-03-23T10:23:51;100347.91;;;11.95;100.00
73516;BME280;61763;51.416;5.442;2023-03-23T10:26:40;100340.56;;;12.11;100.00
73516;BME280;61763;51.416;5.442;2023-03-23T10:29:12;100341.03;;;12.18;100.00
73516;BME280;61763;51.416;5.442;2023-03-23T10:31:52;100359.03;;;12.46;100.00
73516;BME280;61763;51.416;5.442;2023-03-23T10:34:28;100349.53;;;12.53;100.00
73516;BME280;61763;51.416;5.442;2023-03-23T10:39:37;100337.97;;;12.64;100.00
73516;BME280;61763;51.416;5.442;2023-03-23T10:42:03;100340.09;;;12.86;100.00
73516;BME280;61763;51.416;5.442;2023-03-23T10:44:32;100334.38;;;12.91;100.00
73516;BME280;61763;51.416;5.442;2023-03-23T10:47:06;100333.53;;;13.03;100.00
73516;BME280;61763;51.416;5.442;2023-03-23T10:49:42;100330.28;;;12.98;100.00
73516;BME280;61763;51.416;5.442;2023-03-23T10:52:32;100328.34;;;13.00;100.00
73516;BME280;61763;51.416;5.442;2023-03-23T10:57:36;100335.06;;;13.20;100.00
73516;BME280;61763;51.416;5.442;2023-03-23T11:00:14;100326.84;;;13.09;100.00
73516;BME280;61763;51.416;5.442;2023-03-23T11:02:47;100325.66;;;13.26;100.00
73516;BME280;61763;51.416;5.442;2023-03-23T11:05:24;100335.94;;;13.33;100.00
73516;BME280;61763;51.416;5.442;2023-03-23T11:07:56;100328.25;;;13.27;100.00
73516;BME280;61763;51.416;5.442;2023-03-23T11:10:26;100337.78;;;13.20;100.00
73516;BME280;61763;51.416;5.442;2023-03-23T11:12:57;100327.41;;;13.27;100.00
73516;BME280;61763;51.416;5.442;2023-03-23T11:15:30;100342.19;;;13.36;100.00
73516;BME280;61763;51.416;5.442;2023-03-23T11:18:06;100343.25;;;13.59;100.00
73516;BME280;61763;51.416;5.442;2023-03-23T11:20:40;100345.00;;;13.34;100.00
73516;BME280;61763;51.416;5.442;2023-03-23T11:23:19;100336.22;;;13.43;100.00
73516;BME280;61763;51.416;5.442;2023-03-23T11:28:21;100339.56;;;13.60;100.00
73516;BME280;61763;51.416;5.442;2023-03-23T11:30:47;100348.09;;;13.92;100.00
73516;BME280;61763;51.416;5.442;2023-03-23T11:33:12;100353.44;;;14.31;99.10
73516;BME280;61763;51.416;5.442;2023-03-23T11:35:43;100349.59;;;14.46;98.44
73516;BME280;61763;51.416;5.442;2023-03-23T11:38:17;100345.41;;;14.29;96.95
73516;BME280;61763;51.416;5.442;2023-03-23T11:40:48;100343.69;;;13.78;96.39
73516;BME280;61763;51.416;5.442;2023-03-23T11:43:18;100354.75;;;13.75;98.79
73516;BME280;61763;51.416;5.442;2023-03-23T11:45:54;100352.47;;;13.69;99.12
73516;BME280;61763;51.416;5.442;2023-03-23T11:51:04;100358.03;;;14.17;96.27
73516;BME280;61763;51.416;5.442;2023-03-23T11:53:48;100354.59;;;14.02;94.30
73516;BME280;61763;51.416;5.442;2023-03-23T11:58:49;100346.91;;;14.70;93.37
73516;BME280;61763;51.416;5.442;2023-03-23T12:07:27;100334.72;;;15.12;91.40
73516;BME280;61763;51.416;5.442;2023-03-23T12:18:54;100311.41;;;15.32;87.24
73516;BME280;61763;51.416;5.442;2023-03-23T12:30:10;100317.50;;;14.64;89.89
73516;BME280;61763;51.416;5.442;2023-03-23T12:38:49;100317.97;;;14.94;92.30
73516;BME280;61763;51.416;5.442;2023-03-23T12:49:23;100291.19;;;16.04;82.66
73516;BME280;61763;51.416;5.442;2023-03-23T12:59:39;100279.06;;;15.85;80.31
73516;BME280;61763;51.416;5.442;2023-03-23T13:02:31;100303.16;;;15.56;84.90
73516;BME280;61763;51.416;5.442;2023-03-23T13:05:08;100295.84;;;15.34;84.76
73516;BME280;61763;51.416;5.442;2023-03-23T13:07:43;100298.84;;;14.95;87.01
73516;BME280;61763;51.416;5.442;2023-03-23T13:10:23;100310.56;;;14.96;88.59
73516;BME280;61763;51.416;5.442;2023-03-23T13:12:51;100304.47;;;14.81;84.78
73516;BME280;61763;51.416;5.442;2023-03-23T13:15:39;100301.19;;;14.88;86.21
73516;BME280;61763;51.416;5.442;2023-03-23T13:21:02;100284.53;;;15.04;87.61
73516;BME280;61763;51.416;5.442;2023-03-23T13:26:06;100277.94;;;15.65;83.65
73516;BME280;61763;51.416;5.442;2023-03-23T13:31:25;100276.94;;;15.77;79.96
73516;BME280;61763;51.416;5.442;2023-03-23T13:34:00;100267.19;;;15.52;80.95
73516;BME280;61763;51.416;5.442;2023-03-23T13:37:00;100262.84;;;15.38;81.43
73516;BME280;61763;51.416;5.442;2023-03-23T13:39:34;100265.41;;;15.17;82.69
73516;BME280;61763;51.416;5.442;2023-03-23T14:06:03;100318.09;;;11.53;100.00
73516;BME280;61763;51.416;5.442;2023-03-23T14:11:09;100308.25;;;11.66;100.00
73516;BME280;61763;51.416;5.442;2023-03-23T14:16:31;100307.63;;;11.90;100.00
73516;BME280;61763;51.416;5.442;2023-03-23T14:19:00;100304.44;;;11.83;100.00
73516;BME280;61763;51.416;5.442;2023-03-23T14:21:42;100303.28;;;11.73;100.00
73516;BME280;61763;51.416;5.442;2023-03-23T14:26:52;100306.19;;;11.84;100.00
73516;BME280;61763;51.416;5.442;2023-03-23T14:29:20;100295.75;;;11.92;100.00
73516;BME280;61763;51.416;5.442;2023-03-23T14:31:54;100291.31;;;11.91;100.00
73516;BME280;61763;51.416;5.442;2023-03-23T14:34:23;100272.38;;;11.91;100.00
73516;BME280;61763;51.416;5.442;2023-03-23T14:36:51;100275.69;;;11.82;100.00
73516;BME280;61763;51.416;5.442;2023-03-23T14:39:24;100282.56;;;11.73;100.00
73516;BME280;61763;51.416;5.442;2023-03-23T14:41:52;100269.09;;;11.86;100.00
73516;BME280;61763;51.416;5.442;2023-03-23T14:44:24;100252.13;;;11.99;100.00
73516;BME280;61763;51.416;5.442;2023-03-23T14:46:50;100249.00;;;11.90;100.00
73516;BME280;61763;51.416;5.442;2023-03-23T14:49:18;100250.75;;;11.91;100.00
73516;BME280;61763;51.416;5.442;2023-03-23T14:51:53;100249.22;;;12.02;100.00
73516;BME280;61763;51.416;5.442;2023-03-23T14:54:25;100266.19;;;12.04;100.00
73516;BME280;61763;51.416;5.442;2023-03-23T14:56:51;100228.34;;;12.31;100.00
73516;BME280;61763;51.416;5.442;2023-03-23T14:59:17;100239.00;;;12.60;100.00